sensor_id;sensor_type;location;lat;lon;timestamp;temperature;humidity
71039;SHT30;58692;43.212;27.908;2022-08-23T00:01:30;25.27;76.19
71039;SHT30;58692;43.212;27.908;2022-08-23T00:04:00;25.16;76.48
71039;SHT30;58692;43.212;27.908;2022-08-23T00:06:26;25.19;76.27
71039;SHT30;58692;43.212;27.908;2022-08-23T00:08:52;25.05;76.84
71039;SHT30;58692;43.212;27.908;2022-08-23T00:13:49;24.60;78.40
71039;SHT30;58692;43.212;27.908;2022-08-23T00:16:14;24.57;78.41
71039;SHT30;58692;43.212;27.908;2022-08-23T00:18:40;24.71;77.84
71039;SHT30;58692;43.212;27.908;2022-08-23T00:21:06;24.55;77.83
71039;SHT30;58692;43.212;27.908;2022-08-23T00:23:31;24.61;77.52
71039;SHT30;58692;43.212;27.908;2022-08-23T00:26:00;24.45;77.90
71039;SHT30;58692;43.212;27.908;2022-08-23T00:28:27;24.40;78.03
71039;SHT30;58692;43.212;27.908;2022-08-23T00:30:52;24.54;77.75
71039;SHT30;58692;43.212;27.908;2022-08-23T00:33:18;24.53;77.70
71039;SHT30;58692;43.212;27.908;2022-08-23T00:35:43;24.58;77.54
71039;SHT30;58692;43.212;27.908;2022-08-23T00:38:09;24.47;77.79
71039;SHT30;58692;43.212;27.908;2022-08-23T00:40:35;24.54;77.24
71039;SHT30;58692;43.212;27.908;2022-08-23T00:43:06;24.57;76.67
71039;SHT30;58692;43.212;27.908;2022-08-23T00:45:54;24.55;76.20
71039;SHT30;58692;43.212;27.908;2022-08-23T00:48:38;24.44;76.19
71039;SHT30;58692;43.212;27.908;2022-08-23T00:51:11;24.09;77.45
71039;SHT30;58692;43.212;27.908;2022-08-23T00:53:43;23.89;77.89
71039;SHT30;58692;43.212;27.908;2022-08-23T00:56:12;23.77;77.99
71039;SHT30;58692;43.212;27.908;2022-08-23T00:58:39;24.00;76.91
71039;SHT30;58692;43.212;27.908;2022-08-23T01:01:05;24.07;76.84
71039;SHT30;58692;43.212;27.908;2022-08-23T01:03:34;24.17;76.63
71039;SHT30;58692;43.212;27.908;2022-08-23T01:08:45;24.20;76.51
71039;SHT30;58692;43.212;27.908;2022-08-23T01:11:18;24.24;75.98
71039;SHT30;58692;43.212;27.908;2022-08-23T01:13:51;24.24;75.98
71039;SHT30;58692;43.212;27.908;2022-08-23T01:16:26;24.20;75.96
71039;SHT30;58692;43.212;27.908;2022-08-23T01:18:53;24.06;76.33
71039;SHT30;58692;43.212;27.908;2022-08-23T01:21:26;24.16;76.12
71039;SHT30;58692;43.212;27.908;2022-08-23T01:23:57;24.17;76.14
71039;SHT30;58692;43.212;27.908;2022-08-23T01:26:24;24.09;76.54
71039;SHT30;58692;43.212;27.908;2022-08-23T01:28:52;24.09;76.63
71039;SHT30;58692;43.212;27.908;2022-08-23T01:31:19;24.07;76.87
71039;SHT30;58692;43.212;27.908;2022-08-23T01:33:46;24.09;76.72
71039;SHT30;58692;43.212;27.908;2022-08-23T01:36:15;24.16;76.41
71039;SHT30;58692;43.212;27.908;2022-08-23T01:38:41;24.13;76.29
71039;SHT30;58692;43.212;27.908;2022-08-23T01:41:07;24.16;76.06
71039;SHT30;58692;43.212;27.908;2022-08-23T01:43:33;23.97;76.58
71039;SHT30;58692;43.212;27.908;2022-08-23T01:46:07;23.79;77.23
71039;SHT30;58692;43.212;27.908;2022-08-23T01:48:33;23.77;77.01
71039;SHT30;58692;43.212;27.908;2022-08-23T01:50:59;23.59;77.43
71039;SHT30;58692;43.212;27.908;2022-08-23T01:53:25;23.49;77.62
71039;SHT30;58692;43.212;27.908;2022-08-23T01:55:50;23.45;77.81
71039;SHT30;58692;43.212;27.908;2022-08-23T01:58:16;23.35;78.42
71039;SHT30;58692;43.212;27.908;2022-08-23T02:00:42;23.31;78.73
71039;SHT30;58692;43.212;27.908;2022-08-23T02:03:09;23.35;78.74
71039;SHT30;58692;43.212;27.908;2022-08-23T02:05:35;23.48;78.66
71039;SHT30;58692;43.212;27.908;2022-08-23T02:08:02;23.60;78.46
71039;SHT30;58692;43.212;27.908;2022-08-23T02:10:48;23.58;78.77
71039;SHT30;58692;43.212;27.908;2022-08-23T02:13:13;23.72;78.26
71039;SHT30;58692;43.212;27.908;2022-08-23T02:15:42;23.79;77.99
71039;SHT30;58692;43.212;27.908;2022-08-23T02:18:08;23.48;79.01
71039;SHT30;58692;43.212;27.908;2022-08-23T02:20:35;23.45;79.21
71039;SHT30;58692;43.212;27.908;2022-08-23T02:23:01;23.49;79.01
71039;SHT30;58692;43.212;27.908;2022-08-23T02:25:27;23.65;78.50
71039;SHT30;58692;43.212;27.908;2022-08-23T02:27:53;23.63;78.49
71039;SHT30;58692;43.212;27.908;2022-08-23T02:30:18;23.73;78.15
71039;SHT30;58692;43.212;27.908;2022-08-23T02:32:44;23.65;78.39
71039;SHT30;58692;43.212;27.908;2022-08-23T02:35:09;23.74;78.42
71039;SHT30;58692;43.212;27.908;2022-08-23T02:37:35;23.82;78.39
71039;SHT30;58692;43.212;27.908;2022-08-23T02:40:02;23.77;78.59
71039;SHT30;58692;43.212;27.908;2022-08-23T02:42:28;23.62;79.11
71039;SHT30;58692;43.212;27.908;2022-08-23T02:44:53;23.55;79.70
71039;SHT30;58692;43.212;27.908;2022-08-23T02:47:20;23.67;79.43
71039;SHT30;58692;43.212;27.908;2022-08-23T02:49:45;23.72;79.26
71039;SHT30;58692;43.212;27.908;2022-08-23T02:52:11;23.77;79.20
71039;SHT30;58692;43.212;27.908;2022-08-23T02:54:36;23.86;78.76
71039;SHT30;58692;43.212;27.908;2022-08-23T02:57:02;23.84;78.91
71039;SHT30;58692;43.212;27.908;2022-08-23T02:59:28;23.73;79.35
71039;SHT30;58692;43.212;27.908;2022-08-23T03:01:54;23.83;79.14
71039;SHT30;58692;43.212;27.908;2022-08-23T03:04:19;23.90;79.01
71039;SHT30;58692;43.212;27.908;2022-08-23T03:06:45;23.94;78.81
71039;SHT30;58692;43.212;27.908;2022-08-23T03:09:11;23.99;78.83
71039;SHT30;58692;43.212;27.908;2022-08-23T03:11:37;23.90;79.22
71039;SHT30;58692;43.212;27.908;2022-08-23T03:14:02;23.67;79.97
71039;SHT30;58692;43.212;27.908;2022-08-23T03:16:28;23.87;79.41
71039;SHT30;58692;43.212;27.908;2022-08-23T03:18:54;23.93;79.19
71039;SHT30;58692;43.212;27.908;2022-08-23T03:21:21;23.96;79.22
71039;SHT30;58692;43.212;27.908;2022-08-23T03:23:47;23.96;79.38
71039;SHT30;58692;43.212;27.908;2022-08-23T03:26:14;24.02;79.41
71039;SHT30;58692;43.212;27.908;2022-08-23T03:28:41;23.82;80.28
71039;SHT30;58692;43.212;27.908;2022-08-23T03:31:08;23.89;80.34
71039;SHT30;58692;43.212;27.908;2022-08-23T03:33:35;23.96;80.06
71039;SHT30;58692;43.212;27.908;2022-08-23T03:36:03;23.99;80.02
71039;SHT30;58692;43.212;27.908;2022-08-23T03:38:29;23.86;80.45
71039;SHT30;58692;43.212;27.908;2022-08-23T03:40:54;23.90;80.44
71039;SHT30;58692;43.212;27.908;2022-08-23T03:43:20;23.99;80.10
71039;SHT30;58692;43.212;27.908;2022-08-23T03:45:46;23.97;80.38
71039;SHT30;58692;43.212;27.908;2022-08-23T03:48:12;24.04;80.27
71039;SHT30;58692;43.212;27.908;2022-08-23T03:50:37;24.06;80.38
71039;SHT30;58692;43.212;27.908;2022-08-23T03:53:04;24.03;80.86
71039;SHT30;58692;43.212;27.908;2022-08-23T03:55:29;24.07;81.35
71039;SHT30;58692;43.212;27.908;2022-08-23T03:57:55;24.09;81.71
71039;SHT30;58692;43.212;27.908;2022-08-23T04:00:21;24.20;81.41
71039;SHT30;58692;43.212;27.908;2022-08-23T04:02:46;24.21;81.58
71039;SHT30;58692;43.212;27.908;2022-08-23T04:05:12;24.40;80.37
71039;SHT30;58692;43.212;27.908;2022-08-23T04:07:38;24.58;79.64
71039;SHT30;58692;43.212;27.908;2022-08-23T04:10:06;24.72;79.05
71039;SHT30;58692;43.212;27.908;2022-08-23T04:12:32;24.68;79.00
71039;SHT30;58692;43.212;27.908;2022-08-23T04:14:58;24.67;78.80
71039;SHT30;58692;43.212;27.908;2022-08-23T04:17:24;24.92;78.12
71039;SHT30;58692;43.212;27.908;2022-08-23T04:19:50;25.06;77.46
71039;SHT30;58692;43.212;27.908;2022-08-23T04:22:17;25.30;76.55
71039;SHT30;58692;43.212;27.908;2022-08-23T04:24:44;25.60;75.68
71039;SHT30;58692;43.212;27.908;2022-08-23T04:27:10;25.66;75.23
71039;SHT30;58692;43.212;27.908;2022-08-23T04:29:36;25.97;74.65
71039;SHT30;58692;43.212;27.908;2022-08-23T04:32:03;26.18;73.84
71039;SHT30;58692;43.212;27.908;2022-08-23T04:34:29;26.38;73.31
71039;SHT30;58692;43.212;27.908;2022-08-23T04:36:57;25.81;75.60
71039;SHT30;58692;43.212;27.908;2022-08-23T04:39:23;25.90;75.62
71039;SHT30;58692;43.212;27.908;2022-08-23T04:41:49;25.96;75.44
71039;SHT30;58692;43.212;27.908;2022-08-23T04:44:30;26.01;75.36
71039;SHT30;58692;43.212;27.908;2022-08-23T04:46:56;26.14;74.87
71039;SHT30;58692;43.212;27.908;2022-08-23T04:49:21;26.13;75.09
71039;SHT30;58692;43.212;27.908;2022-08-23T04:51:48;26.14;75.32
71039;SHT30;58692;43.212;27.908;2022-08-23T04:54:14;26.52;74.22
71039;SHT30;58692;43.212;27.908;2022-08-23T04:56:40;26.14;75.36
71039;SHT30;58692;43.212;27.908;2022-08-23T04:59:07;26.21;74.90
71039;SHT30;58692;43.212;27.908;2022-08-23T05:01:33;26.62;73.70
71039;SHT30;58692;43.212;27.908;2022-08-23T05:04:00;27.24;71.99
71039;SHT30;58692;43.212;27.908;2022-08-23T05:06:27;26.83;73.01
71039;SHT30;58692;43.212;27.908;2022-08-23T05:08:55;27.42;71.57
71039;SHT30;58692;43.212;27.908;2022-08-23T05:11:21;27.64;70.71
71039;SHT30;58692;43.212;27.908;2022-08-23T05:13:47;27.83;69.99
71039;SHT30;58692;43.212;27.908;2022-08-23T05:16:12;27.65;70.70
71039;SHT30;58692;43.212;27.908;2022-08-23T05:18:38;27.81;70.31
71039;SHT30;58692;43.212;27.908;2022-08-23T05:21:04;28.38;68.57
71039;SHT30;58692;43.212;27.908;2022-08-23T05:23:33;28.79;67.34
71039;SHT30;58692;43.212;27.908;2022-08-23T05:25:59;28.69;67.46
71039;SHT30;58692;43.212;27.908;2022-08-23T05:28:28;28.34;68.33
71039;SHT30;58692;43.212;27.908;2022-08-23T05:31:07;28.41;68.62
71039;SHT30;58692;43.212;27.908;2022-08-23T05:33:34;28.69;67.59
71039;SHT30;58692;43.212;27.908;2022-08-23T05:36:01;28.49;68.16
71039;SHT30;58692;43.212;27.908;2022-08-23T05:38:27;28.28;68.84
71039;SHT30;58692;43.212;27.908;2022-08-23T05:40:56;28.15;69.58
71039;SHT30;58692;43.212;27.908;2022-08-23T05:43:23;28.80;67.64
71039;SHT30;58692;43.212;27.908;2022-08-23T05:48:33;29.65;65.22
71039;SHT30;58692;43.212;27.908;2022-08-23T05:51:22;30.01;64.20
71039;SHT30;58692;43.212;27.908;2022-08-23T05:53:50;29.68;65.15
71039;SHT30;58692;43.212;27.908;2022-08-23T05:56:23;30.29;63.47
71039;SHT30;58692;43.212;27.908;2022-08-23T05:58:51;30.26;63.18
71039;SHT30;58692;43.212;27.908;2022-08-23T06:01:17;29.84;63.99
71039;SHT30;58692;43.212;27.908;2022-08-23T06:03:43;29.86;63.83
71039;SHT30;58692;43.212;27.908;2022-08-23T06:06:10;30.26;63.38
71039;SHT30;58692;43.212;27.908;2022-08-23T06:08:37;29.55;64.68
71039;SHT30;58692;43.212;27.908;2022-08-23T06:11:09;29.37;66.07
71039;SHT30;58692;43.212;27.908;2022-08-23T06:13:41;29.50;65.69
71039;SHT30;58692;43.212;27.908;2022-08-23T06:16:08;28.93;67.70
71039;SHT30;58692;43.212;27.908;2022-08-23T06:18:33;28.76;68.08
71039;SHT30;58692;43.212;27.908;2022-08-23T06:21:06;29.67;65.25
71039;SHT30;58692;43.212;27.908;2022-08-23T06:23:32;29.84;64.91
71039;SHT30;58692;43.212;27.908;2022-08-23T06:25:59;30.56;62.80
71039;SHT30;58692;43.212;27.908;2022-08-23T06:28:28;30.22;63.81
71039;SHT30;58692;43.212;27.908;2022-08-23T06:30:55;30.28;63.45
71039;SHT30;58692;43.212;27.908;2022-08-23T06:33:22;31.00;61.64
71039;SHT30;58692;43.212;27.908;2022-08-23T06:35:48;30.74;62.43
71039;SHT30;58692;43.212;27.908;2022-08-23T06:38:16;31.23;60.70
71039;SHT30;58692;43.212;27.908;2022-08-23T06:40:42;31.31;60.70
71039;SHT30;58692;43.212;27.908;2022-08-23T06:43:07;30.52;62.75
71039;SHT30;58692;43.212;27.908;2022-08-23T06:45:33;29.98;64.07
71039;SHT30;58692;43.212;27.908;2022-08-23T06:47:59;29.60;65.43
71039;SHT30;58692;43.212;27.908;2022-08-23T06:50:25;29.68;65.30
71039;SHT30;58692;43.212;27.908;2022-08-23T06:52:50;29.85;64.78
71039;SHT30;58692;43.212;27.908;2022-08-23T06:55:17;29.91;64.60
71039;SHT30;58692;43.212;27.908;2022-08-23T06:57:42;29.89;64.82
71039;SHT30;58692;43.212;27.908;2022-08-23T07:00:09;30.60;62.90
71039;SHT30;58692;43.212;27.908;2022-08-23T07:02:35;30.21;63.92
71039;SHT30;58692;43.212;27.908;2022-08-23T07:05:02;29.72;65.41
71039;SHT30;58692;43.212;27.908;2022-08-23T07:07:28;28.82;67.52
71039;SHT30;58692;43.212;27.908;2022-08-23T07:09:53;28.63;68.45
71039;SHT30;58692;43.212;27.908;2022-08-23T07:12:19;28.46;69.09
71039;SHT30;58692;43.212;27.908;2022-08-23T07:14:45;28.62;68.71
71039;SHT30;58692;43.212;27.908;2022-08-23T07:17:13;29.34;67.01
71039;SHT30;58692;43.212;27.908;2022-08-23T07:19:39;29.24;66.78
71039;SHT30;58692;43.212;27.908;2022-08-23T07:22:08;29.80;65.63
71039;SHT30;58692;43.212;27.908;2022-08-23T07:24:34;29.84;65.25
71039;SHT30;58692;43.212;27.908;2022-08-23T07:27:01;30.51;63.52
71039;SHT30;58692;43.212;27.908;2022-08-23T07:29:30;30.72;63.20
71039;SHT30;58692;43.212;27.908;2022-08-23T07:31:56;31.68;60.69
71039;SHT30;58692;43.212;27.908;2022-08-23T07:34:22;31.17;61.95
71039;SHT30;58692;43.212;27.908;2022-08-23T07:36:49;30.70;62.77
71039;SHT30;58692;43.212;27.908;2022-08-23T07:39:17;30.40;63.92
71039;SHT30;58692;43.212;27.908;2022-08-23T07:41:43;31.10;61.86
71039;SHT30;58692;43.212;27.908;2022-08-23T07:44:10;30.56;63.63
71039;SHT30;58692;43.212;27.908;2022-08-23T07:46:38;30.74;62.75
71039;SHT30;58692;43.212;27.908;2022-08-23T07:49:05;31.21;61.08
71039;SHT30;58692;43.212;27.908;2022-08-23T07:51:32;31.79;59.10
71039;SHT30;58692;43.212;27.908;2022-08-23T07:54:01;31.08;61.34
71039;SHT30;58692;43.212;27.908;2022-08-23T07:56:27;31.13;61.58
71039;SHT30;58692;43.212;27.908;2022-08-23T07:58:53;31.54;60.28
71039;SHT30;58692;43.212;27.908;2022-08-23T08:01:23;31.86;58.37
71039;SHT30;58692;43.212;27.908;2022-08-23T08:03:51;32.52;56.58
71039;SHT30;58692;43.212;27.908;2022-08-23T08:06:27;32.13;57.50
71039;SHT30;58692;43.212;27.908;2022-08-23T08:08:52;31.54;59.47
71039;SHT30;58692;43.212;27.908;2022-08-23T08:11:22;30.88;60.90
71039;SHT30;58692;43.212;27.908;2022-08-23T08:13:49;32.43;56.95
71039;SHT30;58692;43.212;27.908;2022-08-23T08:16:21;33.14;54.58
71039;SHT30;58692;43.212;27.908;2022-08-23T08:18:47;33.32;54.55
71039;SHT30;58692;43.212;27.908;2022-08-23T08:21:14;33.65;53.57
71039;SHT30;58692;43.212;27.908;2022-08-23T08:23:40;33.82;52.37
71039;SHT30;58692;43.212;27.908;2022-08-23T08:26:07;33.58;52.43
71039;SHT30;58692;43.212;27.908;2022-08-23T08:28:34;33.61;52.46
71039;SHT30;58692;43.212;27.908;2022-08-23T08:31:01;32.80;53.92
71039;SHT30;58692;43.212;27.908;2022-08-23T08:33:28;32.39;54.52
71039;SHT30;58692;43.212;27.908;2022-08-23T08:35:56;32.41;53.94
71039;SHT30;58692;43.212;27.908;2022-08-23T08:38:24;32.55;54.11
71039;SHT30;58692;43.212;27.908;2022-08-23T08:44:22;32.64;53.28
71039;SHT30;58692;43.212;27.908;2022-08-23T08:49:04;33.31;51.85
71039;SHT30;58692;43.212;27.908;2022-08-23T08:51:52;32.30;53.85
71039;SHT30;58692;43.212;27.908;2022-08-23T08:54:24;31.72;55.60
71039;SHT30;58692;43.212;27.908;2022-08-23T08:56:53;31.54;57.01
71039;SHT30;58692;43.212;27.908;2022-08-23T08:59:23;31.31;57.40
71039;SHT30;58692;43.212;27.908;2022-08-23T09:01:51;31.93;58.93
71039;SHT30;58692;43.212;27.908;2022-08-23T09:04:18;32.67;57.82
71039;SHT30;58692;43.212;27.908;2022-08-23T09:15:00;30.76;65.89
71039;SHT30;58692;43.212;27.908;2022-08-23T09:20:15;32.37;63.20
71039;SHT30;58692;43.212;27.908;2022-08-23T09:22:46;32.05;63.97
71039;SHT30;58692;43.212;27.908;2022-08-23T09:25:13;31.92;64.36
71039;SHT30;58692;43.212;27.908;2022-08-23T09:27:42;30.66;68.30
71039;SHT30;58692;43.212;27.908;2022-08-23T09:30:13;30.39;68.56
71039;SHT30;58692;43.212;27.908;2022-08-23T09:32:42;32.09;64.18
71039;SHT30;58692;43.212;27.908;2022-08-23T09:35:13;32.74;61.76
71039;SHT30;58692;43.212;27.908;2022-08-23T09:37:53;32.70;62.37
71039;SHT30;58692;43.212;27.908;2022-08-23T09:40:29;32.13;63.00
71039;SHT30;58692;43.212;27.908;2022-08-23T09:43:09;32.10;63.08
71039;SHT30;58692;43.212;27.908;2022-08-23T09:45:37;32.29;62.51
71039;SHT30;58692;43.212;27.908;2022-08-23T09:48:05;31.64;64.84
71039;SHT30;58692;43.212;27.908;2022-08-23T09:50:36;32.44;62.80
71039;SHT30;58692;43.212;27.908;2022-08-23T09:53:08;32.49;61.96
71039;SHT30;58692;43.212;27.908;2022-08-23T09:58:14;32.46;61.78
71039;SHT30;58692;43.212;27.908;2022-08-23T10:00:41;32.35;61.80
71039;SHT30;58692;43.212;27.908;2022-08-23T10:05:49;33.17;58.74
71039;SHT30;58692;43.212;27.908;2022-08-23T10:08:32;32.64;60.79
71039;SHT30;58692;43.212;27.908;2022-08-23T10:13:29;32.56;61.73
71039;SHT30;58692;43.212;27.908;2022-08-23T10:16:18;33.04;61.07
71039;SHT30;58692;43.212;27.908;2022-08-23T10:21:22;32.86;60.77
71039;SHT30;58692;43.212;27.908;2022-08-23T10:26:33;33.22;58.84
71039;SHT30;58692;43.212;27.908;2022-08-23T10:29:14;33.31;58.76
71039;SHT30;58692;43.212;27.908;2022-08-23T10:37:51;34.22;56.49
71039;SHT30;58692;43.212;27.908;2022-08-23T10:40:34;33.24;59.38
71039;SHT30;58692;43.212;27.908;2022-08-23T10:45:47;32.33;61.43
71039;SHT30;58692;43.212;27.908;2022-08-23T10:50:49;31.64;63.84
71039;SHT30;58692;43.212;27.908;2022-08-23T10:53:17;32.10;62.95
71039;SHT30;58692;43.212;27.908;2022-08-23T10:55:49;32.67;61.45
71039;SHT30;58692;43.212;27.908;2022-08-23T10:58:31;32.44;62.12
71039;SHT30;58692;43.212;27.908;2022-08-23T11:00:58;32.81;61.16
71039;SHT30;58692;43.212;27.908;2022-08-23T11:03:29;32.41;62.37
71039;SHT30;58692;43.212;27.908;2022-08-23T11:09:08;32.43;61.81
71039;SHT30;58692;43.212;27.908;2022-08-23T11:14:06;30.84;66.69
71039;SHT30;58692;43.212;27.908;2022-08-23T11:16:33;30.16;69.14
71039;SHT30;58692;43.212;27.908;2022-08-23T11:18:59;30.02;69.85
71039;SHT30;58692;43.212;27.908;2022-08-23T11:23:54;29.80;71.71
71039;SHT30;58692;43.212;27.908;2022-08-23T11:34:28;29.10;75.22
71039;SHT30;58692;43.212;27.908;2022-08-23T11:40:03;29.33;73.35
71039;SHT30;58692;43.212;27.908;2022-08-23T11:42:49;29.50;73.01
71039;SHT30;58692;43.212;27.908;2022-08-23T11:51:06;31.18;66.06
71039;SHT30;58692;43.212;27.908;2022-08-23T11:54:00;31.88;64.03
71039;SHT30;58692;43.212;27.908;2022-08-23T12:01:45;31.52;65.03
71039;SHT30;58692;43.212;27.908;2022-08-23T12:04:11;31.27;66.06
71039;SHT30;58692;43.212;27.908;2022-08-23T12:06:53;31.75;64.31
71039;SHT30;58692;43.212;27.908;2022-08-23T12:14:35;31.18;66.72
71039;SHT30;58692;43.212;27.908;2022-08-23T12:19:59;31.27;66.05
71039;SHT30;58692;43.212;27.908;2022-08-23T12:23:04;31.57;65.34
71039;SHT30;58692;43.212;27.908;2022-08-23T12:25:32;30.96;67.11
71039;SHT30;58692;43.212;27.908;2022-08-23T12:28:22;30.77;68.11
71039;SHT30;58692;43.212;27.908;2022-08-23T12:34:02;30.47;68.91
71039;SHT30;58692;43.212;27.908;2022-08-23T12:36:41;30.01;70.60
71039;SHT30;58692;43.212;27.908;2022-08-23T12:41:55;29.43;73.13
71039;SHT30;58692;43.212;27.908;2022-08-23T12:44:25;29.41;73.27
71039;SHT30;58692;43.212;27.908;2022-08-23T12:46:52;29.38;73.18
71039;SHT30;58692;43.212;27.908;2022-08-23T12:49:28;29.38;73.15
71039;SHT30;58692;43.212;27.908;2022-08-23T12:51:57;29.51;73.44
71039;SHT30;58692;43.212;27.908;2022-08-23T12:54:41;29.70;73.04
71039;SHT30;58692;43.212;27.908;2022-08-23T12:57:13;29.49;73.62
71039;SHT30;58692;43.212;27.908;2022-08-23T13:02:29;29.71;73.50
71039;SHT30;58692;43.212;27.908;2022-08-23T13:05:03;29.71;73.40
71039;SHT30;58692;43.212;27.908;2022-08-23T13:07:31;29.72;73.54
71039;SHT30;58692;43.212;27.908;2022-08-23T13:09:57;29.51;73.53
71039;SHT30;58692;43.212;27.908;2022-08-23T13:12:24;29.62;73.49
71039;SHT30;58692;43.212;27.908;2022-08-23T13:14:53;29.49;74.50
71039;SHT30;58692;43.212;27.908;2022-08-23T13:17:33;29.49;74.64
71039;SHT30;58692;43.212;27.908;2022-08-23T13:22:29;29.58;74.43
71039;SHT30;58692;43.212;27.908;2022-08-23T13:25:07;29.47;74.09
71039;SHT30;58692;43.212;27.908;2022-08-23T13:27:51;29.10;75.30
71039;SHT30;58692;43.212;27.908;2022-08-23T13:30:19;28.95;75.10
71039;SHT30;58692;43.212;27.908;2022-08-23T13:32:47;28.93;75.09
71039;SHT30;58692;43.212;27.908;2022-08-23T13:37:59;29.16;74.86
71039;SHT30;58692;43.212;27.908;2022-08-23T13:40:30;29.24;74.85
71039;SHT30;58692;43.212;27.908;2022-08-23T13:43:00;29.10;74.58
71039;SHT30;58692;43.212;27.908;2022-08-23T13:45:30;28.78;75.07
71039;SHT30;58692;43.212;27.908;2022-08-23T13:50:29;28.79;75.61
71039;SHT30;58692;43.212;27.908;2022-08-23T13:52:56;28.80;75.75
71039;SHT30;58692;43.212;27.908;2022-08-23T13:55:23;28.65;76.39
71039;SHT30;58692;43.212;27.908;2022-08-23T13:57:49;28.60;76.35
71039;SHT30;58692;43.212;27.908;2022-08-23T14:00:15;28.84;75.60
71039;SHT30;58692;43.212;27.908;2022-08-23T14:02:41;28.78;75.83
71039;SHT30;58692;43.212;27.908;2022-08-23T14:05:07;28.78;75.66
71039;SHT30;58692;43.212;27.908;2022-08-23T14:07:33;29.03;74.93
71039;SHT30;58692;43.212;27.908;2022-08-23T14:09:59;29.11;73.97
71039;SHT30;58692;43.212;27.908;2022-08-23T14:12:28;29.02;74.29
71039;SHT30;58692;43.212;27.908;2022-08-23T14:14:55;28.83;75.00
71039;SHT30;58692;43.212;27.908;2022-08-23T14:17:21;28.83;75.38
71039;SHT30;58692;43.212;27.908;2022-08-23T14:19:47;28.86;75.39
71039;SHT30;58692;43.212;27.908;2022-08-23T14:22:13;28.70;75.91
71039;SHT30;58692;43.212;27.908;2022-08-23T14:24:40;28.65;76.39
71039;SHT30;58692;43.212;27.908;2022-08-23T14:27:10;28.60;75.88
71039;SHT30;58692;43.212;27.908;2022-08-23T14:29:36;28.39;76.80
71039;SHT30;58692;43.212;27.908;2022-08-23T14:32:02;28.49;76.63
71039;SHT30;58692;43.212;27.908;2022-08-23T14:34:28;28.62;76.22
71039;SHT30;58692;43.212;27.908;2022-08-23T14:36:55;28.75;75.79
71039;SHT30;58692;43.212;27.908;2022-08-23T14:39:22;28.65;75.64
71039;SHT30;58692;43.212;27.908;2022-08-23T14:41:48;28.48;76.59
71039;SHT30;58692;43.212;27.908;2022-08-23T14:44:14;28.29;77.55
71039;SHT30;58692;43.212;27.908;2022-08-23T14:46:42;28.25;78.07
71039;SHT30;58692;43.212;27.908;2022-08-23T14:49:08;28.28;78.46
71039;SHT30;58692;43.212;27.908;2022-08-23T14:51:37;28.18;79.09
71039;SHT30;58692;43.212;27.908;2022-08-23T14:54:05;28.12;78.97
71039;SHT30;58692;43.212;27.908;2022-08-23T14:56:32;28.24;78.75
71039;SHT30;58692;43.212;27.908;2022-08-23T14:58:58;28.15;78.08
71039;SHT30;58692;43.212;27.908;2022-08-23T15:01:24;28.19;78.25
71039;SHT30;58692;43.212;27.908;2022-08-23T15:03:50;28.14;78.27
71039;SHT30;58692;43.212;27.908;2022-08-23T15:06:17;28.17;78.26
71039;SHT30;58692;43.212;27.908;2022-08-23T15:08:44;28.04;78.10
71039;SHT30;58692;43.212;27.908;2022-08-23T15:11:10;28.17;77.81
71039;SHT30;58692;43.212;27.908;2022-08-23T15:13:37;28.14;78.11
71039;SHT30;58692;43.212;27.908;2022-08-23T15:16:05;28.07;78.72
71039;SHT30;58692;43.212;27.908;2022-08-23T15:18:32;28.02;78.61
71039;SHT30;58692;43.212;27.908;2022-08-23T15:20:59;27.88;78.06
71039;SHT30;58692;43.212;27.908;2022-08-23T15:23:25;28.02;76.34
71039;SHT30;58692;43.212;27.908;2022-08-23T15:25:50;27.93;76.49
71039;SHT30;58692;43.212;27.908;2022-08-23T15:28:18;27.93;76.85
71039;SHT30;58692;43.212;27.908;2022-08-23T15:30:44;27.95;77.19
71039;SHT30;58692;43.212;27.908;2022-08-23T15:33:11;27.94;77.62
71039;SHT30;58692;43.212;27.908;2022-08-23T15:35:48;27.97;78.01
71039;SHT30;58692;43.212;27.908;2022-08-23T15:38:16;28.04;77.98
71039;SHT30;58692;43.212;27.908;2022-08-23T15:40:43;28.00;78.51
71039;SHT30;58692;43.212;27.908;2022-08-23T15:43:09;27.87;79.05
71039;SHT30;58692;43.212;27.908;2022-08-23T15:45:34;27.81;79.53
71039;SHT30;58692;43.212;27.908;2022-08-23T15:48:02;27.83;78.95
71039;SHT30;58692;43.212;27.908;2022-08-23T15:50:32;27.83;78.99
71039;SHT30;58692;43.212;27.908;2022-08-23T15:52:59;27.76;78.93
71039;SHT30;58692;43.212;27.908;2022-08-23T15:55:28;27.65;79.53
71039;SHT30;58692;43.212;27.908;2022-08-23T15:57:55;27.67;79.06
71039;SHT30;58692;43.212;27.908;2022-08-23T16:00:23;27.64;79.00
71039;SHT30;58692;43.212;27.908;2022-08-23T16:02:49;27.70;78.79
71039;SHT30;58692;43.212;27.908;2022-08-23T16:05:15;27.74;78.69
71039;SHT30;58692;43.212;27.908;2022-08-23T16:07:42;27.76;78.84
71039;SHT30;58692;43.212;27.908;2022-08-23T16:10:09;27.83;78.25
71039;SHT30;58692;43.212;27.908;2022-08-23T16:12:37;27.90;77.18
71039;SHT30;58692;43.212;27.908;2022-08-23T16:15:03;27.91;75.86
71039;SHT30;58692;43.212;27.908;2022-08-23T16:17:29;28.02;75.29
71039;SHT30;58692;43.212;27.908;2022-08-23T16:19:54;27.95;75.91
71039;SHT30;58692;43.212;27.908;2022-08-23T16:22:20;27.94;75.95
71039;SHT30;58692;43.212;27.908;2022-08-23T16:24:45;27.91;75.00
71039;SHT30;58692;43.212;27.908;2022-08-23T16:27:11;27.85;75.35
71039;SHT30;58692;43.212;27.908;2022-08-23T16:29:37;27.84;75.24
71039;SHT30;58692;43.212;27.908;2022-08-23T16:32:06;27.81;74.71
71039;SHT30;58692;43.212;27.908;2022-08-23T16:34:32;27.65;74.71
71039;SHT30;58692;43.212;27.908;2022-08-23T16:37:01;27.74;74.41
71039;SHT30;58692;43.212;27.908;2022-08-23T16:39:28;27.78;74.05
71039;SHT30;58692;43.212;27.908;2022-08-23T16:41:54;27.81;74.01
71039;SHT30;58692;43.212;27.908;2022-08-23T16:44:20;27.68;74.08
71039;SHT30;58692;43.212;27.908;2022-08-23T16:46:46;27.63;74.41
71039;SHT30;58692;43.212;27.908;2022-08-23T16:49:14;27.61;74.25
71039;SHT30;58692;43.212;27.908;2022-08-23T16:51:41;27.63;74.47
71039;SHT30;58692;43.212;27.908;2022-08-23T16:54:07;27.57;74.54
71039;SHT30;58692;43.212;27.908;2022-08-23T16:56:35;27.71;74.44
71039;SHT30;58692;43.212;27.908;2022-08-23T16:59:05;27.76;74.47
71039;SHT30;58692;43.212;27.908;2022-08-23T17:04:09;27.73;74.77
71039;SHT30;58692;43.212;27.908;2022-08-23T17:06:34;27.67;74.96
71039;SHT30;58692;43.212;27.908;2022-08-23T17:09:00;27.68;74.88